ADDS METAR Data INFO
IDs: Format: Raw Decoded Include TAF

Data at: 1052 UTC 20 Sep 2017

KDWX 201035Z AUTO 00000KT 10SM OVC110 04/02 A3006 RMK AO2 T00360017
KDWX 201015Z AUTO 04004KT 10SM OVC110 04/02 A3006 RMK AO2 T00360016
KDWX 200955Z AUTO 00000KT 10SM SCT070 SCT090 OVC110 04/02 A3006 RMK AO2 T00370016
KDWX 200935Z AUTO 00000KT 10SM BKN070 OVC110 04/01 A3005 RMK AO2 T00360014
KDWX 200915Z AUTO 35003KT 10SM BKN070 BKN090 OVC110 04/02 A3006 RMK AO2 T00400015
KDWX 200855Z AUTO 01004KT 10SM BKN070 OVC090 04/02 A3005 RMK AO2 T00420018
KDWX 200835Z AUTO 01003KT 10SM BKN070 OVC090 04/02 A3006 RMK AO2 T00440018
KDWX 200815Z AUTO 03004KT 10SM -RA SCT060 OVC070 05/02 A3005 RMK AO2 T00460018
KDWX 200755Z AUTO 00000KT 10SM -RA SCT041 SCT050 OVC070 05/02 A3006 RMK AO2 T00450018
KDWX 200735Z AUTO 07005KT 10SM -RA SCT036 BKN055 OVC070 05/02 A3006 RMK AO2 T00450018
KDWX 200715Z AUTO 06005KT 10SM -RA BKN055 OVC070 05/02 A3005 RMK AO2 T00450021
KDWX 200655Z AUTO 09006KT 10SM -RA BKN055 OVC070 05/02 A3004 RMK AO2 T00450020 403070001
KDWX 200635Z AUTO 05004KT 10SM -DZ SCT039 BKN055 OVC070 05/02 A3004 RMK AO2 T00450023
KDWX 200615Z AUTO 00000KT 10SM -DZ SCT043 OVC055 05/02 A3005 RMK AO2 T00460022
KDWX 200555Z AUTO 07005KT 10SM RA OVC055 05/02 A3004 RMK AO2 T00450022 10307 20001
KDWX 200535Z AUTO 00000KT 10SM -DZ OVC055 05/02 A3004 RMK AO2 T00450023
KDWX 200515Z AUTO 07004KT 10SM -RA SCT047 OVC055 04/02 A3003 RMK AO2 T00430024
KDWX 200455Z AUTO 10006KT 10SM OVC055 04/02 A3005 RMK AO2 T00410022
KDWX 200435Z AUTO 10008KT 10SM SCT050 OVC055 04/02 A3005 RMK AO2 T00410020
KDWX 200415Z AUTO 08006KT 10SM -DZ SCT043 BKN050 OVC060 04/02 A3004 RMK AO2 T00400019
KDWX 200355Z AUTO 07005KT 10SM SCT050 OVC060 04/02 A3005 RMK AO2 T00400015
KDWX 200335Z AUTO 06004KT 10SM OVC060 04/02 A3004 RMK AO2 T00380015
KDWX 200315Z AUTO 07007KT 10SM OVC060 04/02 A3004 RMK AO2 T00370015
KDWX 200255Z AUTO 07007KT 10SM OVC060 04/02 A3004 RMK AO2 T00360015
KDWX 200235Z AUTO 08006KT 10SM SCT047 OVC060 04/02 A3005 RMK AO2 T00350015
KDWX 200215Z AUTO 08006KT 10SM OVC060 04/02 A3004 RMK AO2 T00350016
KDWX 200155Z AUTO 06007KT 10SM OVC060 03/02 A3002 RMK AO2 T00330017
KDWX 200135Z AUTO 07007KT 10SM OVC050 03/02 A3002 RMK AO2 T00310017
KDWX 200115Z AUTO 09011KT 10SM OVC050 03/02 A3001 RMK AO2 T00290016
KDWX 200055Z AUTO 08006KT 10SM SCT023 SCT028 OVC050 03/02 A3003 RMK AO2 T00260015
KDWX 200035Z AUTO 10011KT 10SM -RA SCT026 OVC047 02/01 A3002 RMK AO2 T00220012
KDWX 200015Z AUTO 11010KT 10SM -RA SCT019 SCT024 OVC047 02/01 A3003 RMK AO2 T00200011
KDWX 192355Z AUTO 10009KT 7SM -RA SCT007 BKN017 OVC025 02/01 A3002 RMK AO2 T00190012 10307 20001
KDWX 192335Z AUTO 10007KT 10SM -SN SCT007 BKN017 OVC021 01/01 A3002 RMK AO2 T00130007
KDWX 192315Z AUTO 09006KT 4SM -SN OVC015 01/00 A3002 RMK AO2 T00120004
KDWX 192255Z AUTO 11008KT 3SM -SN SCT009 OVC014 01/00 A3002 RMK AO2 T00120003
KDWX 192235Z AUTO 10007KT 2SM UP OVC008 02/01 A3002 RMK AO2 T00200007
KDWX 192215Z AUTO 10006KT 2SM -RA OVC010 03/01 A3001 RMK AO2 T00250011
KDWX 192155Z AUTO 08003KT 10SM -RA SCT009 SCT013 OVC027 03/01 A3001 RMK AO2 T00260013
KDWX 192135Z AUTO 06005KT 2 1/2SM RA SCT009 BKN014 OVC022 03/01 A3002 RMK AO2 T00300013
KDWX 192115Z AUTO 02003KT 7SM RA SCT014 BKN022 OVC028 03/01 A3002 RMK AO2 T00320013
KDWX 192055Z AUTO 33007KT 5SM RA SCT014 BKN028 OVC033 04/02 A3001 RMK AO2 T00360015
KDWX 192035Z AUTO 32009KT 7SM -RA SCT016 BKN021 OVC033 05/02 A3001 RMK AO2 T00450018
KDWX 192015Z AUTO 35007KT 10SM RA OVC018 05/02 A2999 RMK AO2 T00510017
KDWX 191955Z AUTO 35009KT 10SM -RA OVC018 06/01 A2998 RMK AO2 T00580007
KDWX 191935Z AUTO 34009G15KT 10SM OVC020 06/01 A2998 RMK AO2 T00620005
KDWX 191915Z AUTO 31014G23KT 10SM -DZ BKN022 OVC036 07/01 A2998 RMK AO2 T00710006
KDWX 191855Z AUTO 34017G22KT 10SM SCT022 OVC034 08/01 A2995 RMK AO2 T00770007
KDWX 191835Z AUTO 35013G22KT 10SM SCT022 SCT037 OVC085 09/02 A2993 RMK AO2 T00930017
KDWX 191815Z AUTO 32023G32KT 10SM OVC085 10/02 A2989 RMK AO2 T01000024
KDWX 191755Z AUTO 33025G33KT 10SM OVC095 11/03 A2987 RMK AO2 T01130031 10307 20001
KDWX 191735Z AUTO 32027G37KT 10SM OVC095 17/M03 A2984 RMK AO2 T01721032
KDWX 191715Z AUTO 23024G36KT 10SM OVC095 19/M05 A2981 RMK AO2 T01871048
KDWX 191655Z AUTO 24025G34KT 10SM OVC095 20/M05 A2981 RMK AO2 T01981055
KDWX 191635Z AUTO 22026G35KT 10SM BKN095 20/M06 A2981 RMK AO2 T02001057
KDWX 191615Z AUTO 22022G34KT 10SM SCT085 19/M06 A2981 RMK AO2 T01941063
KDWX 191555Z AUTO 20027G38KT 10SM BKN085 19/M07 A2980 RMK AO2 T01861066
KDWX 191535Z AUTO 20020G31KT 10SM SCT085 SCT110 18/M07 A2981 RMK AO2 T01831066
KDWX 191515Z AUTO 19020G26KT 10SM SCT085 SCT110 18/M07 A2981 RMK AO2 T01781066
KDWX 191455Z AUTO 19019G29KT 10SM BKN110 17/M06 A2981 RMK AO2 T01671064
KDWX 191435Z AUTO 19017G24KT 10SM OVC120 17/M06 A2981 RMK AO2 T01651062
KDWX 191415Z AUTO 19018G24KT 10SM OVC120 16/M06 A2981 RMK AO2 T01631061
KDWX 191355Z AUTO 19018G26KT 10SM SCT090 OVC120 16/M06 A2983 RMK AO2 T01641060
KDWX 191335Z AUTO 19018G23KT 10SM OVC090 16/M06 A2983 RMK AO2 T01621060
KDWX 191315Z AUTO 20017G24KT 10SM BKN090 16/M06 A2983 RMK AO2 T01601061
KDWX 191255Z AUTO 19017G23KT 10SM CLR 16/M06 A2983 RMK AO2 T01611062
KDWX 191235Z AUTO 19016G24KT 10SM CLR 16/M06 A2983 RMK AO2 T01631063
KDWX 191215Z AUTO 19016G24KT 10SM CLR 16/M07 A2983 RMK AO2 T01641066
KDWX 191155Z AUTO 19015G23KT 10SM SCT095 17/M07 A2983 RMK AO2 T01651067 10307 20001
KDWX 191135Z AUTO 19014G23KT 10SM CLR 17/M07 A2984 RMK AO2 T01661068
KDWX 191115Z AUTO 19013G23KT 10SM CLR 17/M07 A2984 RMK AO2 T01661070
KDWX 191055Z AUTO 20015G22KT 10SM CLR 17/M07 A2984 RMK AO2 T01681071
KDWX 191035Z AUTO 19015G22KT 10SM CLR 17/M07 A2984 RMK AO2 T01721073
KDWX 191015Z AUTO 20019G25KT 10SM CLR 18/M07 A2983 RMK AO2 T01751075
KDWX 190955Z AUTO 20016G22KT 10SM CLR 17/M07 A2984 RMK AO2 T01741075
KDWX 190935Z AUTO 20011G18KT 10SM CLR 17/M07 A2984 RMK AO2 T01731074
KDWX 190915Z AUTO 20015G23KT 10SM CLR 18/M07 A2984 RMK AO2 T01761074
KDWX 190855Z AUTO 19017G25KT 10SM CLR 18/M07 A2984 RMK AO2 T01771073
KDWX 190835Z AUTO 19016G21KT 10SM CLR 18/M07 A2985 RMK AO2 T01771071
KDWX 190815Z AUTO 19015G20KT 10SM CLR 18/M07 A2986 RMK AO2 T01761069
KDWX 190755Z AUTO 19015G25KT 10SM CLR 17/M06 A2987 RMK AO2 T01741061
KDWX 190735Z AUTO 19013G20KT 10SM CLR 17/M05 A2988 RMK AO2 T01721051
KDWX 190715Z AUTO 19014G18KT 10SM CLR 17/M04 A2989 RMK AO2 T01721043
KDWX 190655Z AUTO 19014G20KT 10SM CLR 17/M04 A2989 RMK AO2 T01741037 403070001
KDWX 190635Z AUTO 20017G23KT 10SM CLR 17/M02 A2989 RMK AO2 T01711021
KDWX 190615Z AUTO 19014G19KT 10SM CLR 17/M01 A2989 RMK AO2 T01711006
KDWX 190555Z AUTO 19012G22KT 10SM CLR 18/M01 A2990 RMK AO2 T01751011 10307 20001
KDWX 190535Z AUTO 20017G25KT 10SM CLR 17/M01 A2991 RMK AO2 T01741008
KDWX 190515Z AUTO 20014G20KT 10SM CLR 18/00 A2991 RMK AO2 T01751001
KDWX 190455Z AUTO 20016G24KT 10SM CLR 18/00 A2992 RMK AO2 T01800000
KDWX 190435Z AUTO 20014G22KT 10SM CLR 17/00 A2992 RMK AO2 T01710001
KDWX 190415Z AUTO 21008G16KT 10SM CLR 17/00 A2993 RMK AO2 T01740000
KDWX 190355Z AUTO 20013G18KT 10SM CLR 17/00 A2993 RMK AO2 T01741001
KDWX 190335Z AUTO 19013G18KT 10SM CLR 17/M01 A2993 RMK AO2 T01721009
KDWX 190315Z AUTO 21010G17KT 10SM CLR 17/M02 A2994 RMK AO2 T01741016
KDWX 190255Z AUTO 19011G15KT 10SM CLR 17/M02 A2995 RMK AO2 T01721021
KDWX 190235Z AUTO 19009KT 10SM CLR 17/M02 A2995 RMK AO2 T01671025
KDWX 190215Z AUTO 21005KT 10SM CLR 17/M03 A2996 RMK AO2 T01711026
KDWX 190155Z AUTO 21007KT 10SM CLR 18/M02 A2995 RMK AO2 T01811023
KDWX 190135Z AUTO 21011G17KT 10SM CLR 19/M03 A2996 RMK AO2 T01901027
KDWX 190115Z AUTO 23012G20KT 10SM CLR 20/M03 A2997 RMK AO2 T01981030
KDWX 190055Z AUTO 22014G19KT 10SM CLR 20/M01 A2998 RMK AO2 T02011015
KDWX 190035Z AUTO 24012G16KT 10SM CLR 21/M01 A2998 RMK AO2 T02101013
KDWX 190015Z AUTO 23013G23KT 10SM CLR 21/M01 A2998 RMK AO2 T02141015
KDWX 182355Z AUTO 23014G18KT 10SM CLR 22/M02 A2998 RMK AO2 T02211016 10307 20001
KDWX 182335Z AUTO 24009G21KT 10SM CLR 22/M02 A2998 RMK AO2 T02241022
KDWX 182315Z AUTO 24011KT 10SM SCT100 23/M02 A2999 RMK AO2 T02301023
KDWX 182255Z AUTO 22016G22KT 10SM SCT100 23/M02 A2999 RMK AO2 T02261022